Indianapolis, Indiana
Traffic Map
Current Weather Conditions
Indianapolis, Indiana
Overcast
Overcast
39°
Feels Like: 32°
Wind Chill: 32° Ceiling: 1500
Heat Index: 39° Visibility: 10mi
Dew Point: 33° Wind: 10mph
Humidity: 79% Direction: 120° (ESE)
Pressure: 29.84in Gusts: 0mph
Raw Report DataKIND 221743Z 12009KT 10SM OVC015 04/01 A2984 RMK AO2 PRESFR T00390006
Traffic Incident Summary
Active as of:
Severity:
Category:
InformationThere was an issue retrieving the traffic information for this location. Please try a different location or try again shortly.
Advertisements
Track Severe Weather on mobile